createdAt,value
2023-02-14T00:02:00.757Z,1.90
2023-02-14T00:04:29.992Z,2.00
2023-02-14T00:06:58.425Z,1.90
2023-02-14T00:09:27.010Z,1.90
2023-02-14T00:11:55.386Z,1.90
2023-02-14T00:14:42.387Z,2.10
2023-02-14T00:17:10.850Z,2.30
2023-02-14T00:19:39.443Z,2.70
2023-02-14T00:22:07.981Z,2.90
2023-02-14T00:24:36.335Z,2.90
2023-02-14T00:27:05.386Z,2.80
2023-02-14T00:29:35.300Z,2.90
2023-02-14T00:32:04.017Z,2.60
2023-02-14T00:34:33.444Z,2.30
2023-02-14T00:37:02.302Z,2.00
2023-02-14T00:39:30.961Z,1.80
2023-02-14T00:41:59.539Z,1.60
2023-02-14T00:44:27.915Z,1.70
2023-02-14T00:46:57.647Z,1.90
2023-02-14T00:49:26.160Z,1.80
2023-02-14T00:51:54.640Z,2.00
2023-02-14T00:54:23.037Z,2.00
2023-02-14T00:56:51.333Z,1.90
2023-02-14T00:59:19.737Z,1.60
2023-02-14T01:01:48.141Z,1.70
2023-02-14T01:04:18.271Z,1.80
2023-02-14T01:06:46.857Z,1.80
2023-02-14T01:09:15.359Z,1.90
2023-02-14T01:11:43.746Z,1.90
2023-02-14T01:14:12.157Z,1.70
2023-02-14T01:16:40.916Z,1.60
2023-02-14T01:19:10.288Z,1.40
2023-02-14T01:21:40.056Z,1.40
2023-02-14T01:24:09.614Z,1.60
2023-02-14T01:26:38.236Z,1.60
2023-02-14T01:29:07.665Z,1.40
2023-02-14T01:31:37.204Z,1.40
2023-02-14T01:34:06.084Z,1.50
2023-02-14T01:36:37.489Z,1.40
2023-02-14T01:39:08.751Z,1.60
2023-02-14T01:41:39.771Z,1.70
2023-02-14T01:44:09.981Z,1.60
2023-02-14T01:46:39.318Z,1.50
2023-02-14T01:49:10.635Z,1.40
2023-02-14T01:51:42.602Z,1.30
2023-02-14T01:54:13.344Z,1.30
2023-02-14T01:56:45.621Z,1.20
2023-02-14T01:59:19.203Z,1.10
2023-02-14T02:01:49.966Z,1.10
2023-02-14T02:04:23.943Z,1.10
2023-02-14T02:06:56.530Z,1.10
2023-02-14T02:09:33.938Z,1.10
2023-02-14T02:12:03.338Z,1.20
2023-02-14T02:14:32.435Z,1.40
2023-02-14T02:17:18.246Z,1.30
2023-02-14T02:20:27.081Z,1.60
2023-02-14T02:23:29.273Z,1.50
2023-02-14T02:26:33.179Z,1.40
2023-02-14T02:29:47.458Z,1.40
2023-02-14T02:32:54.244Z,1.40
2023-02-14T02:35:50.224Z,1.30
2023-02-14T02:38:44.070Z,1.30
2023-02-14T02:41:21.179Z,1.20
2023-02-14T02:43:57.328Z,1.30
2023-02-14T02:46:50.606Z,1.20
2023-02-14T02:49:48.179Z,1.30
2023-02-14T02:52:43.267Z,1.40
2023-02-14T02:55:18.893Z,1.30
2023-02-14T02:57:48.840Z,1.30
2023-02-14T03:00:19.124Z,1.30
2023-02-14T03:03:09.348Z,1.30
2023-02-14T03:05:38.909Z,1.20
2023-02-14T03:08:08.663Z,1.20
2023-02-14T03:10:39.332Z,1.20
2023-02-14T03:13:30.119Z,1.00
2023-02-14T03:16:35.621Z,0.80
2023-02-14T03:19:32.362Z,0.70
2023-02-14T03:22:07.959Z,0.60
2023-02-14T03:24:47.944Z,0.60
2023-02-14T03:27:23.706Z,0.40
2023-02-14T03:30:02.608Z,0.50
2023-02-14T03:32:38.559Z,0.60
2023-02-14T03:35:14.041Z,0.60
2023-02-14T03:37:48.699Z,0.80
2023-02-14T03:40:23.198Z,0.80
2023-02-14T03:42:55.808Z,0.80
2023-02-14T03:45:30.323Z,0.80
2023-02-14T03:48:03.624Z,0.70
2023-02-14T03:50:34.271Z,0.60
2023-02-14T03:53:04.726Z,0.50
2023-02-14T03:55:39.407Z,0.50
2023-02-14T03:58:14.530Z,0.50
2023-02-14T04:00:44.885Z,0.50
2023-02-14T04:03:18.227Z,0.50
2023-02-14T04:05:52.497Z,0.40
2023-02-14T04:08:25.784Z,0.30
2023-02-14T04:10:57.849Z,0.40
2023-02-14T04:13:26.467Z,0.40
2023-02-14T04:15:56.006Z,0.40
2023-02-14T04:18:41.771Z,0.40
2023-02-14T04:21:10.083Z,0.40
2023-02-14T04:23:38.513Z,0.50
2023-02-14T04:26:08.360Z,0.60
2023-02-14T04:28:36.772Z,0.60
2023-02-14T04:31:06.783Z,0.60
2023-02-14T04:33:35.760Z,0.60
2023-02-14T04:36:05.722Z,0.50
2023-02-14T04:38:34.380Z,0.50
2023-02-14T04:41:03.824Z,0.50
2023-02-14T04:43:33.723Z,0.60
2023-02-14T04:46:02.407Z,0.60
2023-02-14T04:48:30.985Z,0.50
2023-02-14T04:50:59.665Z,0.40
2023-02-14T04:53:29.151Z,0.40
2023-02-14T04:55:57.662Z,0.30
2023-02-14T04:58:26.021Z,0.40
2023-02-14T05:00:55.825Z,0.50
2023-02-14T05:03:24.490Z,0.40
2023-02-14T05:05:52.802Z,0.40
2023-02-14T05:08:21.619Z,0.40
2023-02-14T05:10:50.064Z,0.80
2023-02-14T05:13:18.784Z,1.20
2023-02-14T05:15:47.368Z,1.00
2023-02-14T05:18:17.191Z,1.00
2023-02-14T05:20:45.653Z,1.00
2023-02-14T05:23:14.106Z,1.10
2023-02-14T05:25:42.524Z,1.20
2023-02-14T05:28:11.084Z,1.20
2023-02-14T05:30:39.952Z,1.10
2023-02-14T05:33:08.605Z,1.00
2023-02-14T05:35:38.597Z,1.00
2023-02-14T05:38:07.049Z,0.90
2023-02-14T05:40:35.660Z,0.90
2023-02-14T05:43:05.045Z,0.90
2023-02-14T05:45:33.529Z,1.00
2023-02-14T05:48:02.113Z,0.90
2023-02-14T05:50:31.504Z,0.90
2023-02-14T05:53:03.343Z,0.90
2023-02-14T05:55:32.175Z,0.90
2023-02-14T05:58:00.552Z,1.00
2023-02-14T06:00:29.163Z,1.10
2023-02-14T06:02:57.699Z,1.20
2023-02-14T06:05:27.110Z,1.30
2023-02-14T06:07:55.642Z,1.40
2023-02-14T06:10:26.992Z,1.40
2023-02-14T06:12:55.863Z,1.40
2023-02-14T06:15:24.345Z,1.40
2023-02-14T06:17:54.115Z,1.30
2023-02-14T06:20:24.205Z,1.30
2023-02-14T06:22:53.255Z,1.40
2023-02-14T06:25:21.966Z,1.80
2023-02-14T06:27:52.091Z,1.80
2023-02-14T06:30:20.610Z,1.50
2023-02-14T06:32:49.227Z,1.30
2023-02-14T06:35:17.781Z,1.20
2023-02-14T06:37:46.347Z,1.50
2023-02-14T06:40:15.602Z,1.80
2023-02-14T06:42:44.488Z,1.90
2023-02-14T06:45:14.330Z,1.60
2023-02-14T06:47:42.788Z,1.40
2023-02-14T06:50:12.810Z,1.10
2023-02-14T06:52:42.241Z,1.00
2023-02-14T06:55:12.290Z,1.00
2023-02-14T06:57:41.431Z,1.00
2023-02-14T07:00:11.316Z,0.80
2023-02-14T07:02:41.071Z,0.80
2023-02-14T07:05:09.815Z,0.90
2023-02-14T07:07:38.199Z,1.00
2023-02-14T07:10:07.759Z,0.90
2023-02-14T07:12:36.140Z,0.80
2023-02-14T07:15:05.730Z,0.80
2023-02-14T07:17:34.097Z,0.60
2023-02-14T07:20:04.022Z,0.50
2023-02-14T07:22:32.432Z,0.40
2023-02-14T07:25:00.958Z,0.40
2023-02-14T07:27:30.003Z,0.40
2023-02-14T07:29:58.478Z,0.40
2023-02-14T07:32:27.161Z,0.40
2023-02-14T07:34:55.794Z,0.40
2023-02-14T07:37:25.695Z,0.40
2023-02-14T07:39:54.056Z,0.50
2023-02-14T07:42:22.443Z,0.70
2023-02-14T07:44:50.884Z,0.80
2023-02-14T07:47:19.703Z,1.00
2023-02-14T07:49:48.162Z,1.10
2023-02-14T07:52:16.636Z,1.20
2023-02-14T07:54:46.325Z,1.30
2023-02-14T07:57:14.757Z,1.40
2023-02-14T07:59:43.221Z,1.60
2023-02-14T08:02:13.418Z,1.80
2023-02-14T08:04:41.855Z,1.70
2023-02-14T08:07:10.337Z,1.80
2023-02-14T08:09:38.692Z,2.00
2023-02-14T08:12:26.703Z,2.00
2023-02-14T08:14:55.007Z,2.10
2023-02-14T08:17:23.480Z,2.10
2023-02-14T08:19:51.976Z,2.20
2023-02-14T08:22:20.306Z,2.40
2023-02-14T08:24:48.798Z,2.60
2023-02-14T08:27:18.609Z,2.90
2023-02-14T08:29:47.044Z,3.00
2023-02-14T08:32:21.035Z,3.20
2023-02-14T08:34:49.625Z,3.40
2023-02-14T08:37:18.087Z,3.50
2023-02-14T08:39:46.425Z,3.80
2023-02-14T08:42:14.908Z,4.10
2023-02-14T08:44:44.701Z,4.40
2023-02-14T08:47:13.439Z,4.60
2023-02-14T08:49:41.888Z,4.70
2023-02-14T08:52:10.239Z,4.90
2023-02-14T08:54:38.589Z,5.20
2023-02-14T08:57:07.224Z,5.30
2023-02-14T08:59:35.710Z,5.40
2023-02-14T09:02:05.486Z,5.50
2023-02-14T09:04:36.346Z,5.60
2023-02-14T09:07:05.784Z,5.70
2023-02-14T09:09:34.334Z,5.80
2023-02-14T09:12:05.907Z,6.00
2023-02-14T09:14:37.181Z,6.10
2023-02-14T09:17:07.938Z,6.30
2023-02-14T09:19:37.373Z,6.50
2023-02-14T09:22:07.902Z,6.80
2023-02-14T09:24:38.152Z,7.00
2023-02-14T09:27:07.146Z,7.20
2023-02-14T09:29:36.014Z,7.40
2023-02-14T09:32:06.888Z,7.60
2023-02-14T09:34:36.996Z,7.70
2023-02-14T09:37:06.516Z,7.80
2023-02-14T09:39:35.172Z,7.90
2023-02-14T09:42:15.130Z,8.00
2023-02-14T09:44:46.664Z,7.90
2023-02-14T09:47:23.343Z,8.20
2023-02-14T09:49:53.892Z,8.30
2023-02-14T09:52:27.192Z,8.50
2023-02-14T09:54:59.210Z,8.70
2023-02-14T09:57:38.695Z,8.80
2023-02-14T10:00:20.601Z,9.00
2023-02-14T10:03:01.624Z,9.00
2023-02-14T10:05:34.087Z,9.10
2023-02-14T10:08:17.814Z,9.10
2023-02-14T10:10:50.714Z,9.00
2023-02-14T10:13:23.965Z,9.10
2023-02-14T10:15:59.061Z,9.20
2023-02-14T10:18:35.716Z,9.50
2023-02-14T10:21:05.875Z,9.50
2023-02-14T10:23:37.949Z,9.70
2023-02-14T10:26:13.984Z,9.70
2023-02-14T10:28:46.494Z,9.70
2023-02-14T10:31:23.486Z,9.80
2023-02-14T10:33:57.874Z,10.00
2023-02-14T10:36:41.236Z,10.10
2023-02-14T10:39:22.800Z,10.10
2023-02-14T10:42:00.327Z,10.30
2023-02-14T10:44:40.190Z,10.60
2023-02-14T10:47:21.480Z,10.80
2023-02-14T10:49:59.307Z,10.90
2023-02-14T10:52:39.196Z,11.00
2023-02-14T10:55:31.482Z,11.10
2023-02-14T10:58:04.166Z,11.30
2023-02-14T11:00:35.426Z,11.30
2023-02-14T11:03:10.962Z,11.50
2023-02-14T11:05:47.032Z,11.60
2023-02-14T11:08:17.125Z,11.60
2023-02-14T11:10:45.868Z,11.70
2023-02-14T11:13:36.812Z,11.80
2023-02-14T11:16:08.933Z,12.10
2023-02-14T11:18:40.052Z,12.30
2023-02-14T11:21:14.611Z,12.40
2023-02-14T11:23:51.216Z,12.60
2023-02-14T11:26:24.434Z,12.70
2023-02-14T11:28:57.490Z,12.90
2023-02-14T11:31:31.094Z,13.20
2023-02-14T11:34:04.710Z,13.30
2023-02-14T11:36:42.820Z,13.30
2023-02-14T11:39:23.159Z,13.30
2023-02-14T11:41:53.465Z,13.50
2023-02-14T11:44:24.259Z,13.80
2023-02-14T11:46:54.416Z,14.00
2023-02-14T11:49:33.102Z,14.10
2023-02-14T11:52:11.336Z,14.00
2023-02-14T11:54:42.383Z,14.00
2023-02-14T11:57:16.922Z,13.90
2023-02-14T11:59:48.459Z,14.10
2023-02-14T12:02:26.195Z,14.10
2023-02-14T12:04:57.915Z,14.30
2023-02-14T12:07:31.978Z,14.50
2023-02-14T12:10:20.630Z,14.40
2023-02-14T12:12:59.991Z,14.40
2023-02-14T12:15:36.804Z,14.40
2023-02-14T12:18:29.805Z,14.30
2023-02-14T12:21:09.875Z,14.40
2023-02-14T12:23:46.259Z,14.60
2023-02-14T12:26:25.741Z,14.50
2023-02-14T12:29:05.121Z,14.80
2023-02-14T12:31:33.659Z,15.10
2023-02-14T12:34:03.888Z,15.10
2023-02-14T12:36:46.334Z,15.20
2023-02-14T12:39:24.430Z,15.40
2023-02-14T12:42:04.722Z,15.50
2023-02-14T12:44:41.896Z,15.60
2023-02-14T12:47:19.026Z,15.70
2023-02-14T12:50:14.337Z,15.80
2023-02-14T12:53:03.184Z,15.80
2023-02-14T12:55:45.658Z,15.70
2023-02-14T12:58:26.959Z,15.90
2023-02-14T13:01:06.477Z,15.90
2023-02-14T13:03:51.889Z,16.30
2023-02-14T13:06:27.010Z,16.30
2023-02-14T13:09:18.416Z,16.40
2023-02-14T13:11:59.579Z,16.30
2023-02-14T13:14:43.588Z,16.30
2023-02-14T13:17:20.637Z,16.20
2023-02-14T13:19:58.383Z,16.20
2023-02-14T13:22:29.825Z,16.30
2023-02-14T13:25:02.150Z,16.30
2023-02-14T13:27:36.446Z,16.40
2023-02-14T13:30:09.706Z,16.40
2023-02-14T13:32:43.256Z,16.50
2023-02-14T13:35:21.066Z,16.40
2023-02-14T13:37:53.952Z,16.40
2023-02-14T13:40:24.756Z,16.30
2023-02-14T13:42:58.807Z,16.40
2023-02-14T13:45:53.807Z,16.60
2023-02-14T13:48:24.407Z,16.80
2023-02-14T13:50:56.117Z,16.70
2023-02-14T13:53:41.046Z,16.70
2023-02-14T13:56:33.443Z,16.80
2023-02-14T13:59:06.378Z,16.70
2023-02-14T14:01:39.135Z,16.50
2023-02-14T14:04:32.077Z,16.50
2023-02-14T14:07:23.548Z,16.70
2023-02-14T14:09:57.960Z,16.50
2023-02-14T14:12:40.440Z,16.30
2023-02-14T14:15:20.480Z,16.40
2023-02-14T14:18:12.046Z,16.40
2023-02-14T14:20:47.980Z,16.40
2023-02-14T14:23:37.341Z,16.50
2023-02-14T14:26:45.563Z,16.70
2023-02-14T14:29:20.346Z,16.50
2023-02-14T14:31:55.713Z,16.40
2023-02-14T14:34:26.286Z,16.20
2023-02-14T14:37:03.834Z,16.40
2023-02-14T14:39:34.695Z,16.60
2023-02-14T14:42:14.846Z,16.50
2023-02-14T14:44:48.655Z,16.60
2023-02-14T14:47:22.741Z,16.60
2023-02-14T14:49:51.598Z,16.50
2023-02-14T14:52:36.336Z,16.60
2023-02-14T14:55:07.356Z,16.60
2023-02-14T14:57:37.803Z,16.50
2023-02-14T15:00:23.181Z,16.10
2023-02-14T15:03:05.796Z,15.80
2023-02-14T15:05:36.829Z,15.70
2023-02-14T15:08:22.194Z,15.60
2023-02-14T15:10:53.882Z,15.20
2023-02-14T15:13:46.327Z,14.80
2023-02-14T15:16:19.291Z,14.40
2023-02-14T15:18:50.077Z,13.90
2023-02-14T15:21:18.675Z,13.60
2023-02-14T15:23:47.341Z,13.50
2023-02-14T15:26:21.468Z,13.30
2023-02-14T15:28:57.541Z,13.20
2023-02-14T15:31:32.138Z,13.00
2023-02-14T15:34:03.851Z,12.90
2023-02-14T15:36:35.022Z,12.60
2023-02-14T15:39:06.983Z,12.50
2023-02-14T15:41:35.369Z,12.30
2023-02-14T15:44:04.314Z,12.20
2023-02-14T15:46:36.737Z,12.10
2023-02-14T15:49:11.776Z,12.00
2023-02-14T15:51:40.844Z,11.80
2023-02-14T15:54:22.760Z,11.70
2023-02-14T15:56:53.946Z,11.60
2023-02-14T15:59:27.639Z,11.40
2023-02-14T16:01:59.627Z,11.30
2023-02-14T16:04:32.381Z,11.20
2023-02-14T16:07:24.108Z,11.10
2023-02-14T16:10:13.830Z,11.10
2023-02-14T16:12:42.571Z,11.00
2023-02-14T16:15:20.336Z,10.90
2023-02-14T16:17:49.132Z,10.80
2023-02-14T16:20:24.092Z,10.60
2023-02-14T16:22:53.114Z,10.40
2023-02-14T16:25:21.785Z,10.30
2023-02-14T16:27:51.374Z,10.10
2023-02-14T16:30:20.723Z,9.90
2023-02-14T16:32:53.744Z,9.70
2023-02-14T16:35:23.727Z,9.50
2023-02-14T16:37:53.307Z,9.30
2023-02-14T16:40:27.647Z,9.20
2023-02-14T16:42:56.133Z,9.10
2023-02-14T16:45:24.520Z,8.90
2023-02-14T16:47:52.941Z,8.70
2023-02-14T16:50:22.767Z,8.40
2023-02-14T16:52:55.994Z,8.20
2023-02-14T16:55:28.867Z,8.10
2023-02-14T16:57:58.555Z,7.80
2023-02-14T17:00:27.463Z,7.60
2023-02-14T17:03:05.800Z,7.40
2023-02-14T17:05:36.036Z,7.30
2023-02-14T17:08:08.650Z,7.20
2023-02-14T17:10:37.401Z,7.50
2023-02-14T17:13:07.420Z,7.60
2023-02-14T17:15:36.391Z,7.50
2023-02-14T17:18:09.979Z,7.20
2023-02-14T17:20:38.714Z,7.00
2023-02-14T17:23:09.122Z,6.90
2023-02-14T17:25:39.002Z,6.80
2023-02-14T17:28:07.348Z,6.60
2023-02-14T17:30:35.913Z,6.60
2023-02-14T17:33:04.849Z,6.50
2023-02-14T17:35:35.350Z,6.30
2023-02-14T17:38:05.403Z,6.40
2023-02-14T17:40:35.132Z,6.40
2023-02-14T17:43:04.268Z,6.40
2023-02-14T17:45:32.684Z,6.30
2023-02-14T17:48:01.740Z,6.20
2023-02-14T17:50:30.358Z,6.00
2023-02-14T17:53:00.045Z,5.80
2023-02-14T17:55:28.844Z,5.80
2023-02-14T17:57:58.701Z,6.10
2023-02-14T18:00:27.222Z,5.90
2023-02-14T18:02:55.719Z,5.80
2023-02-14T18:05:24.139Z,5.80
2023-02-14T18:07:52.990Z,5.80
2023-02-14T18:10:21.464Z,5.70
2023-02-14T18:12:49.835Z,5.50
2023-02-14T18:15:19.969Z,5.40
2023-02-14T18:17:51.325Z,5.60
2023-02-14T18:20:19.945Z,5.60
2023-02-14T18:22:48.443Z,5.70
2023-02-14T18:25:16.875Z,5.70
2023-02-14T18:27:45.492Z,5.50
2023-02-14T18:30:14.689Z,5.40
2023-02-14T18:32:44.480Z,5.20
2023-02-14T18:35:13.155Z,5.20
2023-02-14T18:37:42.676Z,5.10
2023-02-14T18:40:18.474Z,5.00
2023-02-14T18:42:46.811Z,4.90
2023-02-14T18:45:15.351Z,4.70
2023-02-14T18:47:45.063Z,4.70
2023-02-14T18:50:13.617Z,4.70
2023-02-14T18:52:42.200Z,4.80
2023-02-14T18:55:10.706Z,4.80
2023-02-14T18:57:39.348Z,4.60
2023-02-14T19:00:12.140Z,4.60
2023-02-14T19:02:40.830Z,4.50
2023-02-14T19:05:29.180Z,4.50
2023-02-14T19:07:59.088Z,4.40
2023-02-14T19:10:27.517Z,4.30
2023-02-14T19:12:56.095Z,4.30
2023-02-14T19:15:24.437Z,4.20
2023-02-14T19:17:54.217Z,4.60
2023-02-14T19:20:22.745Z,4.90
2023-02-14T19:22:52.504Z,4.90
2023-02-14T19:25:21.091Z,4.60
2023-02-14T19:27:52.824Z,4.50
2023-02-14T19:30:21.570Z,4.50
2023-02-14T19:32:50.314Z,4.40
2023-02-14T19:35:19.015Z,4.40
2023-02-14T19:37:48.931Z,4.30
2023-02-14T19:40:18.920Z,4.10
2023-02-14T19:42:47.748Z,4.00
2023-02-14T19:45:16.123Z,4.00
2023-02-14T19:47:47.409Z,3.90
2023-02-14T19:50:16.040Z,3.80
2023-02-14T19:52:45.019Z,3.70
2023-02-14T19:55:25.000Z,3.70
2023-02-14T19:57:54.218Z,3.60
2023-02-14T20:00:22.939Z,3.70
2023-02-14T20:02:51.469Z,3.60
2023-02-14T20:05:20.493Z,3.70
2023-02-14T20:07:52.019Z,4.00
2023-02-14T20:10:21.996Z,4.00
2023-02-14T20:12:50.353Z,3.80
2023-02-14T20:15:18.887Z,3.70
2023-02-14T20:17:47.227Z,3.70
2023-02-14T20:20:16.641Z,3.70
2023-02-14T20:22:45.246Z,3.60
2023-02-14T20:25:13.656Z,3.50
2023-02-14T20:27:43.529Z,3.40
2023-02-14T20:30:12.940Z,3.50
2023-02-14T20:32:41.472Z,3.30
2023-02-14T20:35:10.101Z,3.20
2023-02-14T20:37:38.580Z,3.30
2023-02-14T20:40:10.938Z,3.50
2023-02-14T20:42:39.771Z,3.30
2023-02-14T20:45:10.178Z,3.20
2023-02-14T20:47:39.073Z,3.10
2023-02-14T20:50:08.620Z,3.00
2023-02-14T20:52:37.871Z,3.00
2023-02-14T20:55:07.171Z,3.20
2023-02-14T20:57:35.512Z,3.10
2023-02-14T21:00:06.189Z,3.00
2023-02-14T21:02:36.404Z,3.00
2023-02-14T21:05:06.713Z,3.00
2023-02-14T21:07:35.132Z,3.00
2023-02-14T21:10:04.222Z,3.00
2023-02-14T21:12:32.676Z,2.90
2023-02-14T21:15:01.113Z,3.10
2023-02-14T21:17:30.405Z,3.30
2023-02-14T21:20:00.120Z,3.40
2023-02-14T21:22:29.615Z,3.40
2023-02-14T21:24:58.024Z,3.30
2023-02-14T21:27:26.805Z,3.40
2023-02-14T21:29:55.464Z,3.40
2023-02-14T21:32:23.875Z,3.40
2023-02-14T21:34:52.264Z,3.40
2023-02-14T21:37:22.572Z,3.40
2023-02-14T21:39:51.281Z,3.20
2023-02-14T21:42:21.272Z,3.10
2023-02-14T21:45:08.246Z,2.80
2023-02-14T21:47:39.997Z,2.90
2023-02-14T21:50:26.652Z,2.80
2023-02-14T21:52:56.383Z,2.70
2023-02-14T21:55:24.691Z,2.50
2023-02-14T21:57:53.111Z,2.50
2023-02-14T22:00:22.690Z,2.50
2023-02-14T22:02:51.088Z,2.60
2023-02-14T22:05:19.541Z,2.30
2023-02-14T22:07:47.898Z,2.30
2023-02-14T22:10:18.016Z,2.20
2023-02-14T22:12:47.522Z,2.10
2023-02-14T22:15:16.015Z,2.00
2023-02-14T22:17:44.869Z,2.00
2023-02-14T22:20:32.185Z,1.90
2023-02-14T22:23:00.610Z,1.80
2023-02-14T22:25:30.328Z,1.80
2023-02-14T22:27:59.051Z,1.80
2023-02-14T22:30:27.553Z,1.80
2023-02-14T22:32:55.914Z,1.70
2023-02-14T22:35:24.301Z,1.70
2023-02-14T22:37:52.689Z,1.70
2023-02-14T22:40:21.367Z,1.70
2023-02-14T22:42:51.235Z,1.60
2023-02-14T22:45:20.111Z,1.50
2023-02-14T22:47:48.520Z,1.50
2023-02-14T22:50:17.170Z,1.90
2023-02-14T22:52:45.502Z,2.00
2023-02-14T22:55:13.845Z,2.20
2023-02-14T22:57:42.711Z,2.20
2023-02-14T23:00:13.536Z,2.20
2023-02-14T23:02:42.254Z,2.10
2023-02-14T23:05:10.728Z,2.00
2023-02-14T23:07:39.123Z,1.90
2023-02-14T23:10:09.106Z,1.90
2023-02-14T23:12:55.101Z,2.10
2023-02-14T23:15:42.674Z,2.30
2023-02-14T23:18:31.238Z,2.20
2023-02-14T23:21:16.908Z,2.10
2023-02-14T23:23:45.237Z,1.80
2023-02-14T23:26:14.187Z,1.90
2023-02-14T23:28:42.594Z,1.80
2023-02-14T23:31:12.433Z,1.70
2023-02-14T23:33:40.781Z,1.60
2023-02-14T23:36:09.599Z,1.50
2023-02-14T23:38:38.085Z,1.40
2023-02-14T23:41:29.183Z,1.30
2023-02-14T23:43:57.536Z,1.10
2023-02-14T23:46:27.300Z,1.20
2023-02-14T23:48:56.674Z,1.10
2023-02-14T23:51:25.160Z,1.10
2023-02-14T23:53:55.066Z,1.00
2023-02-14T23:56:23.458Z,1.10
2023-02-14T23:58:51.791Z,1.10
